Humidity-temperature Sensor

Selected Measurement Type: Air Temperature

 
Air Temperature [°C]     6 entries per hour
Showing data from 3/17/2015 (00:00:00 Z) to 3/16/2015 (00:01:00 Z)
Previous Next [ Day | 3-Days | 7-Days ]
First Last
Prev [ Day | 3-Days | 7-Days ] Next
First Last

Start Time:     :
End Time:     :     
Time (in GMT) :00 :50 :40 :30 :20 :10
Previous Next [ Day | 3-Days | 7-Days ]
First Last
Prev [ Day | 3-Days | 7-Days ] Next
First Last


123 => good data
MM => data is determined as missing
-- => data not received/configured
Back to Top Back to Top
3/17/2015 00:00 to 23:10 26.97 26.94 26.89 26.87 26.88 26.86
3/16/2015 23:00 to 22:10 26.80 26.78 26.85 26.89 26.89 26.88
3/16/2015 22:00 to 21:10 26.87 26.88 26.97 26.82 26.83 26.81
3/16/2015 21:00 to 20:10 26.92 26.70 26.72 26.71 26.64 26.69
3/16/2015 20:00 to 19:10 26.77 26.68 26.64 26.65 26.76 26.75
3/16/2015 19:00 to 18:10 26.68 26.69 26.79 26.83 26.83 26.79
3/16/2015 18:00 to 17:10 26.84 27.16 26.93 26.99 27.09 27.09
3/16/2015 17:00 to 16:10 27.09 27.19 26.96 27.23 27.20 27.21
3/16/2015 16:00 to 15:10 27.27 26.94 26.68 27.09 26.60 26.54
3/16/2015 15:00 to 14:10 26.54 26.40 26.50 26.47 26.51 26.48
3/16/2015 14:00 to 13:10 26.45 26.46 26.41 26.35 26.36 26.46
3/16/2015 13:00 to 12:10 26.28 26.31 26.26 26.27 26.21 26.23
3/16/2015 12:00 to 11:10 26.35 26.20 26.28 26.38 26.33 26.27
3/16/2015 11:00 to 10:10 26.31 26.31 26.27 26.32 26.39 26.34
3/16/2015 10:00 to 9:10 26.39 26.42 26.44 26.42 26.42 26.54
3/16/2015 09:00 to 8:10 26.46 26.47 26.50 26.36 26.54 26.57
3/16/2015 08:00 to 7:10 26.50 26.47 26.58 26.60 26.56 26.62
3/16/2015 07:00 to 6:10 26.68 26.60 26.65 26.71 26.77 26.76
3/16/2015 06:00 to 5:10 26.72 26.80 26.74 26.71 26.75 26.81
3/16/2015 05:00 to 4:10 26.79 26.74 26.81 26.87 26.81 26.80
3/16/2015 04:00 to 3:10 26.81 26.80 26.86 26.82 26.76 26.86
3/16/2015 03:00 to 2:10 26.83 26.81 26.79 26.90 26.84 26.84
3/16/2015 02:00 to 1:10 26.91 26.90 26.99 26.88 26.89 26.99
3/16/2015 01:00 to 0:10 27.03 27.06 27.01 27.02 26.99 26.98